sensor_id;sensor_type;location;lat;lon;timestamp;P1;durP1;ratioP1;P2;durP2;ratioP2
64826;SDS011;51265;53.972;12.286;2023-04-26T00:01:03;7.78;;;1.25;;
64826;SDS011;51265;53.972;12.286;2023-04-26T00:03:30;8.38;;;1.30;;
64826;SDS011;51265;53.972;12.286;2023-04-26T00:06:00;12.15;;;1.58;;
64826;SDS011;51265;53.972;12.286;2023-04-26T00:08:30;6.85;;;1.65;;
64826;SDS011;51265;53.972;12.286;2023-04-26T00:10:57;12.10;;;1.50;;
64826;SDS011;51265;53.972;12.286;2023-04-26T00:13:23;9.77;;;1.63;;
64826;SDS011;51265;53.972;12.286;2023-04-26T00:15:49;6.90;;;1.77;;
64826;SDS011;51265;53.972;12.286;2023-04-26T00:18:16;12.35;;;1.50;;
64826;SDS011;51265;53.972;12.286;2023-04-26T00:20:45;13.80;;;1.48;;
64826;SDS011;51265;53.972;12.286;2023-04-26T00:23:12;9.30;;;1.30;;
64826;SDS011;51265;53.972;12.286;2023-04-26T00:25:38;16.83;;;2.28;;
64826;SDS011;51265;53.972;12.286;2023-04-26T00:28:04;7.47;;;1.40;;
64826;SDS011;51265;53.972;12.286;2023-04-26T00:30:31;13.73;;;1.40;;
64826;SDS011;51265;53.972;12.286;2023-04-26T00:32:59;6.38;;;1.38;;
64826;SDS011;51265;53.972;12.286;2023-04-26T00:35:26;8.70;;;1.67;;
64826;SDS011;51265;53.972;12.286;2023-04-26T00:37:52;9.63;;;1.52;;
64826;SDS011;51265;53.972;12.286;2023-04-26T00:40:19;7.30;;;1.52;;
64826;SDS011;51265;53.972;12.286;2023-04-26T00:42:46;12.00;;;1.60;;
64826;SDS011;51265;53.972;12.286;2023-04-26T00:45:12;16.40;;;2.17;;
64826;SDS011;51265;53.972;12.286;2023-04-26T00:47:39;11.68;;;1.85;;
64826;SDS011;51265;53.972;12.286;2023-04-26T00:50:06;8.82;;;1.92;;
64826;SDS011;51265;53.972;12.286;2023-04-26T00:52:33;8.45;;;1.73;;
64826;SDS011;51265;53.972;12.286;2023-04-26T00:55:00;10.90;;;1.50;;
64826;SDS011;51265;53.972;12.286;2023-04-26T00:57:27;8.43;;;1.95;;
64826;SDS011;51265;53.972;12.286;2023-04-26T00:59:54;9.95;;;1.70;;
64826;SDS011;51265;53.972;12.286;2023-04-26T01:02:21;8.13;;;1.95;;
64826;SDS011;51265;53.972;12.286;2023-04-26T01:04:47;7.57;;;1.58;;
64826;SDS011;51265;53.972;12.286;2023-04-26T01:07:14;7.30;;;1.45;;
64826;SDS011;51265;53.972;12.286;2023-04-26T01:09:40;7.97;;;1.83;;
64826;SDS011;51265;53.972;12.286;2023-04-26T01:12:09;6.78;;;1.73;;
64826;SDS011;51265;53.972;12.286;2023-04-26T01:14:38;10.10;;;2.00;;
64826;SDS011;51265;53.972;12.286;2023-04-26T01:17:04;11.00;;;1.83;;
64826;SDS011;51265;53.972;12.286;2023-04-26T01:19:31;9.43;;;1.60;;
64826;SDS011;51265;53.972;12.286;2023-04-26T01:21:58;9.25;;;1.30;;
64826;SDS011;51265;53.972;12.286;2023-04-26T01:24:24;11.43;;;1.70;;
64826;SDS011;51265;53.972;12.286;2023-04-26T01:26:50;10.10;;;1.70;;
64826;SDS011;51265;53.972;12.286;2023-04-26T01:29:19;9.70;;;1.92;;
64826;SDS011;51265;53.972;12.286;2023-04-26T01:31:46;8.82;;;1.73;;
64826;SDS011;51265;53.972;12.286;2023-04-26T01:34:13;11.60;;;2.28;;
64826;SDS011;51265;53.972;12.286;2023-04-26T01:36:40;7.13;;;2.10;;
64826;SDS011;51265;53.972;12.286;2023-04-26T01:39:07;9.02;;;2.00;;
64826;SDS011;51265;53.972;12.286;2023-04-26T01:41:36;4.63;;;1.70;;
64826;SDS011;51265;53.972;12.286;2023-04-26T01:44:03;9.95;;;1.77;;
64826;SDS011;51265;53.972;12.286;2023-04-26T01:46:30;7.63;;;1.73;;
64826;SDS011;51265;53.972;12.286;2023-04-26T01:48:56;13.20;;;1.75;;
64826;SDS011;51265;53.972;12.286;2023-04-26T01:51:23;10.85;;;1.77;;
64826;SDS011;51265;53.972;12.286;2023-04-26T01:53:49;9.45;;;2.03;;
64826;SDS011;51265;53.972;12.286;2023-04-26T01:56:16;9.82;;;1.73;;
64826;SDS011;51265;53.972;12.286;2023-04-26T01:58:43;7.40;;;1.30;;
64826;SDS011;51265;53.972;12.286;2023-04-26T02:01:10;9.75;;;1.92;;
64826;SDS011;51265;53.972;12.286;2023-04-26T02:03:36;9.10;;;2.00;;
64826;SDS011;51265;53.972;12.286;2023-04-26T02:06:03;12.95;;;2.63;;
64826;SDS011;51265;53.972;12.286;2023-04-26T02:08:29;12.32;;;1.77;;
64826;SDS011;51265;53.972;12.286;2023-04-26T02:10:56;8.13;;;1.67;;
64826;SDS011;51265;53.972;12.286;2023-04-26T02:13:23;9.10;;;2.22;;
64826;SDS011;51265;53.972;12.286;2023-04-26T02:15:49;13.43;;;2.40;;
64826;SDS011;51265;53.972;12.286;2023-04-26T02:18:17;9.50;;;1.70;;
64826;SDS011;51265;53.972;12.286;2023-04-26T02:20:47;12.05;;;1.65;;
64826;SDS011;51265;53.972;12.286;2023-04-26T02:23:13;7.22;;;1.45;;
64826;SDS011;51265;53.972;12.286;2023-04-26T02:25:44;8.07;;;1.45;;
64826;SDS011;51265;53.972;12.286;2023-04-26T02:28:12;13.25;;;2.60;;
64826;SDS011;51265;53.972;12.286;2023-04-26T02:30:39;12.43;;;1.92;;
64826;SDS011;51265;53.972;12.286;2023-04-26T02:33:05;9.25;;;1.70;;
64826;SDS011;51265;53.972;12.286;2023-04-26T02:35:32;12.75;;;1.90;;
64826;SDS011;51265;53.972;12.286;2023-04-26T02:37:59;9.43;;;1.63;;
64826;SDS011;51265;53.972;12.286;2023-04-26T02:40:25;8.88;;;1.88;;
64826;SDS011;51265;53.972;12.286;2023-04-26T02:42:51;12.95;;;2.10;;
64826;SDS011;51265;53.972;12.286;2023-04-26T02:45:18;8.77;;;1.50;;
64826;SDS011;51265;53.972;12.286;2023-04-26T02:47:44;10.73;;;2.10;;
64826;SDS011;51265;53.972;12.286;2023-04-26T02:50:11;9.93;;;1.67;;
64826;SDS011;51265;53.972;12.286;2023-04-26T02:52:37;9.13;;;1.88;;
64826;SDS011;51265;53.972;12.286;2023-04-26T02:55:04;13.02;;;2.05;;
64826;SDS011;51265;53.972;12.286;2023-04-26T02:57:31;11.18;;;1.70;;
64826;SDS011;51265;53.972;12.286;2023-04-26T02:59:58;12.07;;;1.98;;
64826;SDS011;51265;53.972;12.286;2023-04-26T03:02:24;13.18;;;1.90;;
64826;SDS011;51265;53.972;12.286;2023-04-26T03:04:51;6.05;;;1.70;;
64826;SDS011;51265;53.972;12.286;2023-04-26T03:07:17;13.18;;;2.15;;
64826;SDS011;51265;53.972;12.286;2023-04-26T03:09:44;12.40;;;1.52;;
64826;SDS011;51265;53.972;12.286;2023-04-26T03:12:10;12.65;;;2.30;;
64826;SDS011;51265;53.972;12.286;2023-04-26T03:14:37;5.30;;;1.50;;
64826;SDS011;51265;53.972;12.286;2023-04-26T03:17:04;10.05;;;1.83;;
64826;SDS011;51265;53.972;12.286;2023-04-26T03:19:32;10.30;;;1.55;;
64826;SDS011;51265;53.972;12.286;2023-04-26T03:22:00;14.60;;;2.20;;
64826;SDS011;51265;53.972;12.286;2023-04-26T03:24:27;10.35;;;1.80;;
64826;SDS011;51265;53.972;12.286;2023-04-26T03:26:53;9.57;;;1.70;;
64826;SDS011;51265;53.972;12.286;2023-04-26T03:29:20;12.35;;;1.50;;
64826;SDS011;51265;53.972;12.286;2023-04-26T03:31:46;9.73;;;2.00;;
64826;SDS011;51265;53.972;12.286;2023-04-26T03:34:13;4.80;;;1.38;;
64826;SDS011;51265;53.972;12.286;2023-04-26T03:36:39;11.60;;;1.70;;
64826;SDS011;51265;53.972;12.286;2023-04-26T03:39:06;6.70;;;1.65;;
64826;SDS011;51265;53.972;12.286;2023-04-26T03:41:34;11.07;;;1.88;;
64826;SDS011;51265;53.972;12.286;2023-04-26T03:44:04;16.92;;;2.42;;
64826;SDS011;51265;53.972;12.286;2023-04-26T03:46:31;12.82;;;2.00;;
64826;SDS011;51265;53.972;12.286;2023-04-26T03:48:57;8.20;;;1.92;;
64826;SDS011;51265;53.972;12.286;2023-04-26T03:51:24;9.93;;;1.80;;
64826;SDS011;51265;53.972;12.286;2023-04-26T03:53:52;8.68;;;2.05;;
64826;SDS011;51265;53.972;12.286;2023-04-26T03:56:19;7.65;;;1.88;;
64826;SDS011;51265;53.972;12.286;2023-04-26T03:58:47;6.72;;;1.83;;
64826;SDS011;51265;53.972;12.286;2023-04-26T04:01:14;10.38;;;2.28;;
64826;SDS011;51265;53.972;12.286;2023-04-26T04:03:41;10.30;;;1.83;;
64826;SDS011;51265;53.972;12.286;2023-04-26T04:06:07;8.63;;;2.38;;
64826;SDS011;51265;53.972;12.286;2023-04-26T04:08:34;7.70;;;1.90;;
64826;SDS011;51265;53.972;12.286;2023-04-26T04:11:00;15.43;;;2.22;;
64826;SDS011;51265;53.972;12.286;2023-04-26T04:13:28;7.40;;;1.90;;
64826;SDS011;51265;53.972;12.286;2023-04-26T04:15:54;12.73;;;2.42;;
64826;SDS011;51265;53.972;12.286;2023-04-26T04:18:21;14.95;;;2.58;;
64826;SDS011;51265;53.972;12.286;2023-04-26T04:20:48;8.88;;;1.85;;
64826;SDS011;51265;53.972;12.286;2023-04-26T04:23:14;9.50;;;2.03;;
64826;SDS011;51265;53.972;12.286;2023-04-26T04:25:41;12.65;;;2.03;;
64826;SDS011;51265;53.972;12.286;2023-04-26T04:28:11;16.08;;;2.40;;
64826;SDS011;51265;53.972;12.286;2023-04-26T04:30:38;9.40;;;2.15;;
64826;SDS011;51265;53.972;12.286;2023-04-26T04:33:04;10.80;;;2.05;;
64826;SDS011;51265;53.972;12.286;2023-04-26T04:35:31;11.15;;;2.05;;
64826;SDS011;51265;53.972;12.286;2023-04-26T04:38:01;14.80;;;2.78;;
64826;SDS011;51265;53.972;12.286;2023-04-26T04:40:28;16.83;;;2.17;;
64826;SDS011;51265;53.972;12.286;2023-04-26T04:42:56;17.63;;;1.70;;
64826;SDS011;51265;53.972;12.286;2023-04-26T04:45:24;5.57;;;2.05;;
64826;SDS011;51265;53.972;12.286;2023-04-26T04:47:53;7.20;;;2.10;;
64826;SDS011;51265;53.972;12.286;2023-04-26T04:50:21;8.30;;;2.25;;
64826;SDS011;51265;53.972;12.286;2023-04-26T04:52:48;8.32;;;1.75;;
64826;SDS011;51265;53.972;12.286;2023-04-26T04:55:14;15.57;;;1.92;;
64826;SDS011;51265;53.972;12.286;2023-04-26T04:57:43;12.68;;;1.67;;
64826;SDS011;51265;53.972;12.286;2023-04-26T05:00:10;12.45;;;2.72;;
64826;SDS011;51265;53.972;12.286;2023-04-26T05:02:49;9.52;;;1.67;;
64826;SDS011;51265;53.972;12.286;2023-04-26T05:05:15;6.40;;;1.50;;
64826;SDS011;51265;53.972;12.286;2023-04-26T05:07:42;8.98;;;1.77;;
64826;SDS011;51265;53.972;12.286;2023-04-26T05:10:10;11.65;;;2.42;;
64826;SDS011;51265;53.972;12.286;2023-04-26T05:12:37;10.73;;;2.13;;
64826;SDS011;51265;53.972;12.286;2023-04-26T05:15:04;21.95;;;2.70;;
64826;SDS011;51265;53.972;12.286;2023-04-26T05:17:31;12.73;;;1.70;;
64826;SDS011;51265;53.972;12.286;2023-04-26T05:20:02;8.32;;;1.80;;
64826;SDS011;51265;53.972;12.286;2023-04-26T05:22:32;12.15;;;1.63;;
64826;SDS011;51265;53.972;12.286;2023-04-26T05:25:02;9.20;;;2.25;;
64826;SDS011;51265;53.972;12.286;2023-04-26T05:27:30;9.45;;;1.80;;
64826;SDS011;51265;53.972;12.286;2023-04-26T05:30:20;9.27;;;2.05;;
64826;SDS011;51265;53.972;12.286;2023-04-26T05:33:09;7.88;;;1.73;;
64826;SDS011;51265;53.972;12.286;2023-04-26T05:35:44;12.85;;;2.03;;
64826;SDS011;51265;53.972;12.286;2023-04-26T05:38:10;8.60;;;1.92;;
64826;SDS011;51265;53.972;12.286;2023-04-26T05:40:37;6.47;;;2.10;;
64826;SDS011;51265;53.972;12.286;2023-04-26T05:43:05;8.57;;;2.10;;
64826;SDS011;51265;53.972;12.286;2023-04-26T05:45:33;7.85;;;1.80;;
64826;SDS011;51265;53.972;12.286;2023-04-26T05:48:00;7.63;;;2.00;;
64826;SDS011;51265;53.972;12.286;2023-04-26T05:50:26;5.70;;;1.73;;
64826;SDS011;51265;53.972;12.286;2023-04-26T05:52:53;11.50;;;2.10;;
64826;SDS011;51265;53.972;12.286;2023-04-26T05:55:19;6.28;;;1.40;;
64826;SDS011;51265;53.972;12.286;2023-04-26T05:57:46;11.55;;;2.03;;
64826;SDS011;51265;53.972;12.286;2023-04-26T06:00:13;9.13;;;2.05;;
64826;SDS011;51265;53.972;12.286;2023-04-26T06:02:41;7.53;;;1.88;;
64826;SDS011;51265;53.972;12.286;2023-04-26T06:05:14;8.15;;;1.73;;
64826;SDS011;51265;53.972;12.286;2023-04-26T06:07:41;6.82;;;1.63;;
64826;SDS011;51265;53.972;12.286;2023-04-26T06:10:09;10.02;;;2.13;;
64826;SDS011;51265;53.972;12.286;2023-04-26T06:12:40;8.27;;;1.77;;
64826;SDS011;51265;53.972;12.286;2023-04-26T06:15:07;10.43;;;1.80;;
64826;SDS011;51265;53.972;12.286;2023-04-26T06:17:36;7.68;;;1.48;;
64826;SDS011;51265;53.972;12.286;2023-04-26T06:20:03;9.82;;;1.92;;
64826;SDS011;51265;53.972;12.286;2023-04-26T06:22:30;10.98;;;1.75;;
64826;SDS011;51265;53.972;12.286;2023-04-26T06:24:57;10.63;;;1.67;;
64826;SDS011;51265;53.972;12.286;2023-04-26T06:27:37;10.68;;;2.22;;
64826;SDS011;51265;53.972;12.286;2023-04-26T06:30:05;10.02;;;2.13;;
64826;SDS011;51265;53.972;12.286;2023-04-26T06:32:34;7.70;;;1.67;;
64826;SDS011;51265;53.972;12.286;2023-04-26T06:35:01;4.65;;;1.55;;
64826;SDS011;51265;53.972;12.286;2023-04-26T06:37:28;11.57;;;2.03;;
64826;SDS011;51265;53.972;12.286;2023-04-26T06:39:55;10.30;;;1.77;;
64826;SDS011;51265;53.972;12.286;2023-04-26T06:42:35;12.02;;;1.90;;
64826;SDS011;51265;53.972;12.286;2023-04-26T06:45:21;13.75;;;1.80;;
64826;SDS011;51265;53.972;12.286;2023-04-26T06:47:50;9.95;;;2.00;;
64826;SDS011;51265;53.972;12.286;2023-04-26T06:50:18;9.45;;;2.25;;
64826;SDS011;51265;53.972;12.286;2023-04-26T06:52:44;8.77;;;1.70;;
64826;SDS011;51265;53.972;12.286;2023-04-26T06:55:10;7.20;;;1.65;;
64826;SDS011;51265;53.972;12.286;2023-04-26T06:57:37;10.25;;;2.30;;
64826;SDS011;51265;53.972;12.286;2023-04-26T07:00:04;9.32;;;1.70;;
64826;SDS011;51265;53.972;12.286;2023-04-26T07:02:31;6.65;;;1.70;;
64826;SDS011;51265;53.972;12.286;2023-04-26T07:04:57;6.28;;;1.85;;
64826;SDS011;51265;53.972;12.286;2023-04-26T07:07:24;11.68;;;2.17;;
64826;SDS011;51265;53.972;12.286;2023-04-26T07:09:53;8.48;;;1.88;;
64826;SDS011;51265;53.972;12.286;2023-04-26T07:12:21;9.75;;;1.95;;
64826;SDS011;51265;53.972;12.286;2023-04-26T07:14:48;7.95;;;1.98;;
64826;SDS011;51265;53.972;12.286;2023-04-26T07:17:14;10.90;;;1.90;;
64826;SDS011;51265;53.972;12.286;2023-04-26T07:19:40;9.25;;;1.95;;
64826;SDS011;51265;53.972;12.286;2023-04-26T07:22:07;7.93;;;1.63;;
64826;SDS011;51265;53.972;12.286;2023-04-26T07:24:38;11.65;;;2.60;;
64826;SDS011;51265;53.972;12.286;2023-04-26T07:27:05;15.35;;;1.95;;
64826;SDS011;51265;53.972;12.286;2023-04-26T07:29:31;8.95;;;1.45;;
64826;SDS011;51265;53.972;12.286;2023-04-26T07:31:57;9.05;;;1.52;;
64826;SDS011;51265;53.972;12.286;2023-04-26T07:34:24;7.78;;;1.50;;
64826;SDS011;51265;53.972;12.286;2023-04-26T07:36:50;8.18;;;1.80;;
64826;SDS011;51265;53.972;12.286;2023-04-26T07:39:17;9.00;;;1.73;;
64826;SDS011;51265;53.972;12.286;2023-04-26T07:41:43;6.25;;;1.55;;
64826;SDS011;51265;53.972;12.286;2023-04-26T07:44:10;5.38;;;1.60;;
64826;SDS011;51265;53.972;12.286;2023-04-26T07:46:36;8.15;;;1.58;;
64826;SDS011;51265;53.972;12.286;2023-04-26T07:49:03;9.95;;;2.00;;
64826;SDS011;51265;53.972;12.286;2023-04-26T07:51:29;3.85;;;1.50;;
64826;SDS011;51265;53.972;12.286;2023-04-26T07:53:56;9.25;;;2.05;;
64826;SDS011;51265;53.972;12.286;2023-04-26T07:56:23;6.63;;;1.35;;
64826;SDS011;51265;53.972;12.286;2023-04-26T07:58:49;5.57;;;1.42;;
64826;SDS011;51265;53.972;12.286;2023-04-26T08:01:16;4.40;;;1.60;;
64826;SDS011;51265;53.972;12.286;2023-04-26T08:03:42;6.43;;;2.10;;
64826;SDS011;51265;53.972;12.286;2023-04-26T08:06:09;5.00;;;1.33;;
64826;SDS011;51265;53.972;12.286;2023-04-26T08:08:35;7.20;;;1.80;;
64826;SDS011;51265;53.972;12.286;2023-04-26T08:11:08;9.80;;;1.55;;
64826;SDS011;51265;53.972;12.286;2023-04-26T08:13:35;6.20;;;1.60;;
64826;SDS011;51265;53.972;12.286;2023-04-26T08:16:01;7.13;;;1.70;;
64826;SDS011;51265;53.972;12.286;2023-04-26T08:18:28;7.03;;;1.55;;
64826;SDS011;51265;53.972;12.286;2023-04-26T08:20:54;8.00;;;1.92;;
64826;SDS011;51265;53.972;12.286;2023-04-26T08:23:21;5.22;;;1.55;;
64826;SDS011;51265;53.972;12.286;2023-04-26T08:25:47;11.38;;;1.67;;
64826;SDS011;51265;53.972;12.286;2023-04-26T08:28:14;7.15;;;1.30;;
64826;SDS011;51265;53.972;12.286;2023-04-26T08:30:41;13.40;;;1.58;;
64826;SDS011;51265;53.972;12.286;2023-04-26T08:33:08;9.60;;;1.60;;
64826;SDS011;51265;53.972;12.286;2023-04-26T08:35:35;4.07;;;1.60;;
64826;SDS011;51265;53.972;12.286;2023-04-26T08:38:01;3.70;;;1.45;;
64826;SDS011;51265;53.972;12.286;2023-04-26T08:40:28;8.10;;;1.67;;
64826;SDS011;51265;53.972;12.286;2023-04-26T08:42:55;5.28;;;1.70;;
64826;SDS011;51265;53.972;12.286;2023-04-26T08:45:21;9.88;;;1.92;;
64826;SDS011;51265;53.972;12.286;2023-04-26T08:48:02;7.95;;;1.80;;
64826;SDS011;51265;53.972;12.286;2023-04-26T08:50:32;7.78;;;1.83;;
64826;SDS011;51265;53.972;12.286;2023-04-26T08:52:59;6.03;;;1.55;;
64826;SDS011;51265;53.972;12.286;2023-04-26T08:55:26;7.55;;;2.30;;
64826;SDS011;51265;53.972;12.286;2023-04-26T08:57:53;4.57;;;1.52;;
64826;SDS011;51265;53.972;12.286;2023-04-26T09:00:20;8.25;;;1.30;;
64826;SDS011;51265;53.972;12.286;2023-04-26T09:02:49;7.47;;;1.63;;
64826;SDS011;51265;53.972;12.286;2023-04-26T09:05:17;5.90;;;1.30;;
64826;SDS011;51265;53.972;12.286;2023-04-26T09:07:55;8.48;;;1.98;;
64826;SDS011;51265;53.972;12.286;2023-04-26T09:10:25;10.38;;;1.52;;
64826;SDS011;51265;53.972;12.286;2023-04-26T09:12:53;5.45;;;1.58;;
64826;SDS011;51265;53.972;12.286;2023-04-26T09:15:21;7.10;;;1.52;;
64826;SDS011;51265;53.972;12.286;2023-04-26T09:17:48;10.38;;;2.08;;
64826;SDS011;51265;53.972;12.286;2023-04-26T09:22:43;5.03;;;1.52;;
64826;SDS011;51265;53.972;12.286;2023-04-26T09:25:11;8.40;;;1.83;;
64826;SDS011;51265;53.972;12.286;2023-04-26T09:27:39;4.97;;;1.60;;
64826;SDS011;51265;53.972;12.286;2023-04-26T09:32:53;5.55;;;1.35;;
64826;SDS011;51265;53.972;12.286;2023-04-26T09:35:34;3.97;;;1.30;;
64826;SDS011;51265;53.972;12.286;2023-04-26T09:38:09;10.55;;;1.98;;
64826;SDS011;51265;53.972;12.286;2023-04-26T09:40:41;11.25;;;1.63;;
64826;SDS011;51265;53.972;12.286;2023-04-26T09:43:13;5.53;;;1.60;;
64826;SDS011;51265;53.972;12.286;2023-04-26T09:45:42;8.13;;;1.63;;
64826;SDS011;51265;53.972;12.286;2023-04-26T09:50:58;9.18;;;2.60;;
64826;SDS011;51265;53.972;12.286;2023-04-26T09:55:55;7.10;;;1.60;;
64826;SDS011;51265;53.972;12.286;2023-04-26T09:58:37;6.32;;;1.60;;
64826;SDS011;51265;53.972;12.286;2023-04-26T10:01:06;7.25;;;1.52;;
64826;SDS011;51265;53.972;12.286;2023-04-26T10:03:33;7.00;;;1.63;;
64826;SDS011;51265;53.972;12.286;2023-04-26T10:06:00;5.60;;;1.98;;
64826;SDS011;51265;53.972;12.286;2023-04-26T10:08:27;6.40;;;1.70;;
64826;SDS011;51265;53.972;12.286;2023-04-26T10:10:54;6.45;;;1.80;;
64826;SDS011;51265;53.972;12.286;2023-04-26T10:13:20;5.03;;;1.35;;
64826;SDS011;51265;53.972;12.286;2023-04-26T10:15:47;5.57;;;1.48;;
64826;SDS011;51265;53.972;12.286;2023-04-26T10:18:13;8.60;;;1.60;;
64826;SDS011;51265;53.972;12.286;2023-04-26T10:20:41;5.05;;;1.30;;
64826;SDS011;51265;53.972;12.286;2023-04-26T10:23:21;4.38;;;1.30;;
64826;SDS011;51265;53.972;12.286;2023-04-26T10:25:51;9.43;;;1.80;;
64826;SDS011;51265;53.972;12.286;2023-04-26T10:28:52;4.57;;;1.80;;
64826;SDS011;51265;53.972;12.286;2023-04-26T10:31:13;5.68;;;1.70;;
64826;SDS011;51265;53.972;12.286;2023-04-26T10:33:39;10.38;;;1.77;;
64826;SDS011;51265;53.972;12.286;2023-04-26T10:36:10;4.40;;;1.27;;
64826;SDS011;51265;53.972;12.286;2023-04-26T10:38:39;6.35;;;1.67;;
64826;SDS011;51265;53.972;12.286;2023-04-26T10:44:00;6.60;;;1.58;;
64826;SDS011;51265;53.972;12.286;2023-04-26T10:47:00;4.28;;;1.50;;
64826;SDS011;51265;53.972;12.286;2023-04-26T10:49:27;9.40;;;1.77;;
64826;SDS011;51265;53.972;12.286;2023-04-26T10:52:12;5.80;;;1.40;;
64826;SDS011;51265;53.972;12.286;2023-04-26T10:54:44;6.75;;;1.55;;
64826;SDS011;51265;53.972;12.286;2023-04-26T10:57:10;9.10;;;1.65;;
64826;SDS011;51265;53.972;12.286;2023-04-26T10:59:37;4.85;;;1.75;;
64826;SDS011;51265;53.972;12.286;2023-04-26T11:02:03;5.57;;;2.05;;
64826;SDS011;51265;53.972;12.286;2023-04-26T11:07:34;2.70;;;1.27;;
64826;SDS011;51265;53.972;12.286;2023-04-26T11:10:07;5.78;;;1.70;;
64826;SDS011;51265;53.972;12.286;2023-04-26T11:12:35;9.27;;;2.00;;
64826;SDS011;51265;53.972;12.286;2023-04-26T11:15:01;6.13;;;1.90;;
64826;SDS011;51265;53.972;12.286;2023-04-26T11:17:28;9.77;;;1.95;;
64826;SDS011;51265;53.972;12.286;2023-04-26T11:20:03;4.80;;;1.65;;
64826;SDS011;51265;53.972;12.286;2023-04-26T11:22:37;4.53;;;1.60;;
64826;SDS011;51265;53.972;12.286;2023-04-26T11:25:04;5.60;;;2.03;;
64826;SDS011;51265;53.972;12.286;2023-04-26T11:27:31;7.20;;;2.38;;
64826;SDS011;51265;53.972;12.286;2023-04-26T11:30:00;4.53;;;1.40;;
64826;SDS011;51265;53.972;12.286;2023-04-26T11:32:28;5.50;;;1.10;;
64826;SDS011;51265;53.972;12.286;2023-04-26T11:34:54;7.72;;;1.20;;
64826;SDS011;51265;53.972;12.286;2023-04-26T11:37:20;4.30;;;1.13;;
64826;SDS011;51265;53.972;12.286;2023-04-26T11:39:46;4.90;;;1.58;;
64826;SDS011;51265;53.972;12.286;2023-04-26T11:42:13;10.55;;;1.25;;
64826;SDS011;51265;53.972;12.286;2023-04-26T11:44:39;6.55;;;1.10;;
64826;SDS011;51265;53.972;12.286;2023-04-26T11:47:06;9.95;;;1.45;;
64826;SDS011;51265;53.972;12.286;2023-04-26T11:49:34;3.80;;;1.38;;
64826;SDS011;51265;53.972;12.286;2023-04-26T11:52:02;10.85;;;2.05;;
64826;SDS011;51265;53.972;12.286;2023-04-26T11:54:30;2.70;;;1.15;;
64826;SDS011;51265;53.972;12.286;2023-04-26T11:56:58;7.60;;;1.52;;
64826;SDS011;51265;53.972;12.286;2023-04-26T12:01:55;7.40;;;1.70;;
64826;SDS011;51265;53.972;12.286;2023-04-26T12:04:28;7.60;;;1.67;;
64826;SDS011;51265;53.972;12.286;2023-04-26T12:07:11;6.25;;;1.52;;
64826;SDS011;51265;53.972;12.286;2023-04-26T12:10:13;7.75;;;1.60;;
64826;SDS011;51265;53.972;12.286;2023-04-26T12:12:50;10.63;;;1.95;;
64826;SDS011;51265;53.972;12.286;2023-04-26T12:15:17;9.73;;;1.75;;
64826;SDS011;51265;53.972;12.286;2023-04-26T12:18:02;4.53;;;1.65;;
64826;SDS011;51265;53.972;12.286;2023-04-26T12:20:34;6.65;;;2.08;;
64826;SDS011;51265;53.972;12.286;2023-04-26T12:23:06;7.65;;;1.90;;
64826;SDS011;51265;53.972;12.286;2023-04-26T12:25:34;4.20;;;1.70;;
64826;SDS011;51265;53.972;12.286;2023-04-26T12:28:08;8.00;;;1.70;;
64826;SDS011;51265;53.972;12.286;2023-04-26T12:30:37;4.57;;;1.50;;
64826;SDS011;51265;53.972;12.286;2023-04-26T12:33:04;5.75;;;1.70;;
64826;SDS011;51265;53.972;12.286;2023-04-26T12:35:31;4.80;;;1.27;;
64826;SDS011;51265;53.972;12.286;2023-04-26T12:38:00;2.90;;;0.93;;
64826;SDS011;51265;53.972;12.286;2023-04-26T12:40:26;4.95;;;1.50;;
64826;SDS011;51265;53.972;12.286;2023-04-26T12:42:53;6.35;;;1.92;;
64826;SDS011;51265;53.972;12.286;2023-04-26T12:45:21;4.88;;;2.08;;
64826;SDS011;51265;53.972;12.286;2023-04-26T12:47:48;6.72;;;1.55;;
64826;SDS011;51265;53.972;12.286;2023-04-26T12:50:29;3.78;;;1.65;;
64826;SDS011;51265;53.972;12.286;2023-04-26T12:52:56;4.78;;;1.27;;
64826;SDS011;51265;53.972;12.286;2023-04-26T12:55:22;6.35;;;1.30;;
64826;SDS011;51265;53.972;12.286;2023-04-26T12:57:48;4.05;;;1.15;;
64826;SDS011;51265;53.972;12.286;2023-04-26T13:00:15;5.68;;;1.35;;
64826;SDS011;51265;53.972;12.286;2023-04-26T13:02:42;3.10;;;1.30;;
64826;SDS011;51265;53.972;12.286;2023-04-26T13:05:09;5.85;;;1.65;;
64826;SDS011;51265;53.972;12.286;2023-04-26T13:07:37;8.43;;;1.42;;
64826;SDS011;51265;53.972;12.286;2023-04-26T13:10:04;5.30;;;1.48;;
64826;SDS011;51265;53.972;12.286;2023-04-26T13:12:31;5.40;;;1.42;;
64826;SDS011;51265;53.972;12.286;2023-04-26T13:14:58;7.03;;;1.40;;
64826;SDS011;51265;53.972;12.286;2023-04-26T13:17:24;5.53;;;1.60;;
64826;SDS011;51265;53.972;12.286;2023-04-26T13:19:51;7.72;;;1.73;;
64826;SDS011;51265;53.972;12.286;2023-04-26T13:22:18;6.35;;;1.30;;
64826;SDS011;51265;53.972;12.286;2023-04-26T13:24:45;6.28;;;1.58;;
64826;SDS011;51265;53.972;12.286;2023-04-26T13:27:12;7.60;;;1.52;;
64826;SDS011;51265;53.972;12.286;2023-04-26T13:29:39;8.27;;;1.75;;
64826;SDS011;51265;53.972;12.286;2023-04-26T13:32:05;6.07;;;1.23;;
64826;SDS011;51265;53.972;12.286;2023-04-26T13:34:33;7.53;;;1.52;;
64826;SDS011;51265;53.972;12.286;2023-04-26T13:36:59;3.72;;;1.00;;
64826;SDS011;51265;53.972;12.286;2023-04-26T13:39:26;3.67;;;1.02;;
64826;SDS011;51265;53.972;12.286;2023-04-26T13:41:55;3.65;;;0.90;;
64826;SDS011;51265;53.972;12.286;2023-04-26T13:44:24;5.63;;;0.60;;
64826;SDS011;51265;53.972;12.286;2023-04-26T13:46:52;2.28;;;0.70;;
64826;SDS011;51265;53.972;12.286;2023-04-26T13:49:19;2.22;;;0.60;;
64826;SDS011;51265;53.972;12.286;2023-04-26T13:51:47;3.80;;;0.93;;
64826;SDS011;51265;53.972;12.286;2023-04-26T13:54:13;6.03;;;0.65;;
64826;SDS011;51265;53.972;12.286;2023-04-26T13:56:40;5.60;;;0.95;;
64826;SDS011;51265;53.972;12.286;2023-04-26T13:59:06;3.75;;;0.50;;
64826;SDS011;51265;53.972;12.286;2023-04-26T14:01:33;1.17;;;0.47;;
64826;SDS011;51265;53.972;12.286;2023-04-26T14:04:00;5.50;;;0.80;;
64826;SDS011;51265;53.972;12.286;2023-04-26T14:06:27;5.13;;;0.80;;
64826;SDS011;51265;53.972;12.286;2023-04-26T14:08:53;4.00;;;0.90;;
64826;SDS011;51265;53.972;12.286;2023-04-26T14:11:19;1.75;;;0.47;;
64826;SDS011;51265;53.972;12.286;2023-04-26T14:13:46;4.22;;;0.77;;
64826;SDS011;51265;53.972;12.286;2023-04-26T14:16:12;3.08;;;0.50;;
64826;SDS011;51265;53.972;12.286;2023-04-26T14:18:38;1.05;;;0.40;;
64826;SDS011;51265;53.972;12.286;2023-04-26T14:21:10;4.75;;;0.57;;
64826;SDS011;51265;53.972;12.286;2023-04-26T14:23:37;1.67;;;0.40;;
64826;SDS011;51265;53.972;12.286;2023-04-26T14:26:03;2.45;;;0.40;;
64826;SDS011;51265;53.972;12.286;2023-04-26T14:28:30;2.88;;;0.63;;
64826;SDS011;51265;53.972;12.286;2023-04-26T14:30:56;1.88;;;0.43;;
64826;SDS011;51265;53.972;12.286;2023-04-26T14:33:22;1.20;;;0.40;;
64826;SDS011;51265;53.972;12.286;2023-04-26T14:35:48;1.25;;;0.40;;
64826;SDS011;51265;53.972;12.286;2023-04-26T14:38:14;2.83;;;0.60;;
64826;SDS011;51265;53.972;12.286;2023-04-26T14:40:41;4.05;;;0.70;;
64826;SDS011;51265;53.972;12.286;2023-04-26T14:43:07;4.45;;;0.75;;
64826;SDS011;51265;53.972;12.286;2023-04-26T14:45:33;4.15;;;0.90;;
64826;SDS011;51265;53.972;12.286;2023-04-26T14:47:59;2.20;;;0.50;;
64826;SDS011;51265;53.972;12.286;2023-04-26T14:50:28;2.65;;;0.60;;
64826;SDS011;51265;53.972;12.286;2023-04-26T14:52:55;2.15;;;0.70;;
64826;SDS011;51265;53.972;12.286;2023-04-26T14:55:21;4.28;;;0.90;;